Penicuik, United Kingdom
Current Conditions -  °F | °C
As of 12:20 AM on Friday 19 Dec 2014 (Local Time) from EGPH Reporting Station
Broken Clouds Broken Clouds  
Wind Chill: 32°   Ceiling: 4500
Heat Index: 41°   Visibility: 6mi
Dew Point: 36°   Wind: 20mph
Humidity: 81%   Direction: 250°WSW
Pressure: 29.47"   Gusts: 31mph
Location:  55.83°N, 3.22°W
Report Text: EGPH 190020Z 25017G27KT 9999 SCT025 BKN045 05/02 Q0998
Loading
Personal Weather Stations






























Interactive Weather Map New forecast layout! Learn more

10-Day Weather Forecast

Advertisements
Track Severe Weather on mobile